createdAt,value
2022-08-19T04:57:18.211Z,63.72
2022-08-19T04:59:57.652Z,63.66
2022-08-19T05:02:51.400Z,63.53
2022-08-19T05:05:45.076Z,63.78
2022-08-19T05:08:43.185Z,63.43
2022-08-19T05:11:17.349Z,63.43
2022-08-19T05:13:46.014Z,63.38
2022-08-19T05:16:16.371Z,63.42
2022-08-19T05:19:05.743Z,63.32
2022-08-19T05:21:53.930Z,63.20
2022-08-19T05:24:25.097Z,63.19
2022-08-19T05:27:01.295Z,62.96
2022-08-19T05:29:36.186Z,62.91
2022-08-19T05:32:07.811Z,62.66
2022-08-19T05:34:39.377Z,62.58
2022-08-19T05:37:09.811Z,62.65
2022-08-19T05:39:38.673Z,62.58
2022-08-19T05:42:12.201Z,62.30
2022-08-19T05:44:45.823Z,62.06
2022-08-19T05:47:15.975Z,62.30
2022-08-19T05:49:44.206Z,62.20
2022-08-19T05:52:18.604Z,62.12
2022-08-19T05:54:51.311Z,62.05
2022-08-19T05:57:20.733Z,62.05
2022-08-19T05:59:58.173Z,61.64
2022-08-19T06:02:28.039Z,61.49
2022-08-19T06:04:56.966Z,61.30
2022-08-19T06:07:24.747Z,60.99
2022-08-19T06:10:00.048Z,60.97
2022-08-19T06:12:35.517Z,60.66
2022-08-19T06:15:15.208Z,60.74
2022-08-19T06:17:45.294Z,60.40
2022-08-19T06:20:16.523Z,60.17
2022-08-19T06:22:50.836Z,60.45
2022-08-19T06:25:22.598Z,60.26
2022-08-19T06:28:14.227Z,60.17
2022-08-19T06:30:38.991Z,60.06
2022-08-19T06:33:35.761Z,60.03
2022-08-19T06:39:56.436Z,60.03
2022-08-19T06:42:25.159Z,60.01
2022-08-19T06:48:27.343Z,60.08
2022-08-19T06:50:55.675Z,59.89
2022-08-19T06:53:23.841Z,59.77
2022-08-19T06:56:01.367Z,59.68
2022-08-19T06:58:33.393Z,59.56
2022-08-19T07:01:08.580Z,59.51
2022-08-19T07:03:41.729Z,59.38
2022-08-19T07:06:41.209Z,59.10
2022-08-19T07:09:03.425Z,58.88
2022-08-19T07:11:34.177Z,58.71
2022-08-19T07:14:39.251Z,58.21
2022-08-19T07:17:11.531Z,57.73
2022-08-19T07:19:42.439Z,57.13
2022-08-19T07:22:13.035Z,56.62
2022-08-19T07:24:51.003Z,56.25
2022-08-19T07:27:24.170Z,56.29
2022-08-19T07:29:56.065Z,56.07
2022-08-19T07:32:31.134Z,56.09
2022-08-19T07:35:01.923Z,55.51
2022-08-19T07:37:33.392Z,54.95
2022-08-19T07:40:02.508Z,54.52
2022-08-19T07:42:31.003Z,54.62
2022-08-19T07:44:59.804Z,54.23
2022-08-19T07:47:49.837Z,53.14
2022-08-19T07:50:34.122Z,52.90
2022-08-19T07:53:14.990Z,52.58
2022-08-19T07:56:34.231Z,52.53
2022-08-19T08:02:45.285Z,51.69
2022-08-19T08:06:06.460Z,51.52
2022-08-19T08:08:48.410Z,50.92
2022-08-19T08:11:20.701Z,50.58
2022-08-19T08:14:00.691Z,50.43
2022-08-19T08:16:34.752Z,50.34
2022-08-19T08:19:07.246Z,50.11
2022-08-19T08:21:50.823Z,48.73
2022-08-19T08:24:28.771Z,48.41
2022-08-19T08:27:02.242Z,48.54
2022-08-19T08:29:45.550Z,48.38
2022-08-19T08:32:21.294Z,47.90
2022-08-19T08:34:52.376Z,48.07
2022-08-19T08:37:21.437Z,47.53
2022-08-19T08:39:49.789Z,47.23
2022-08-19T08:42:34.400Z,47.12
2022-08-19T08:45:55.368Z,46.44
2022-08-19T08:48:40.412Z,46.02
2022-08-19T08:51:59.363Z,45.72
2022-08-19T09:02:51.787Z,43.83
2022-08-19T09:05:48.373Z,44.01
2022-08-19T09:08:57.477Z,44.04
2022-08-19T09:12:27.005Z,44.01
2022-08-19T09:15:09.254Z,43.80
2022-08-19T09:17:39.689Z,43.69
2022-08-19T09:20:23.140Z,43.59
2022-08-19T09:22:51.721Z,43.29
2022-08-19T09:25:26.854Z,43.21
2022-08-19T09:28:03.032Z,43.30
2022-08-19T09:30:40.266Z,42.92
2022-08-19T09:33:10.372Z,42.45
2022-08-19T09:35:49.820Z,42.20
2022-08-19T09:38:22.736Z,42.03
2022-08-19T09:40:50.930Z,41.65
2022-08-19T09:43:33.222Z,41.35
2022-08-19T09:46:10.776Z,40.95
2022-08-19T09:48:40.313Z,40.76
2022-08-19T09:51:16.450Z,40.43
2022-08-19T09:53:46.179Z,40.21
2022-08-19T09:56:16.646Z,39.62
2022-08-19T09:58:48.359Z,39.07
2022-08-19T10:01:24.986Z,39.26
2022-08-19T10:03:58.482Z,39.01
2022-08-19T10:06:46.120Z,38.65
2022-08-19T10:09:17.982Z,38.64
2022-08-19T10:12:06.090Z,38.32
2022-08-19T10:14:59.367Z,38.23
2022-08-19T10:17:34.359Z,37.87
2022-08-19T10:20:05.744Z,37.41
2022-08-19T10:22:36.721Z,37.39
2022-08-19T10:25:06.626Z,37.38
2022-08-19T10:27:34.563Z,37.13
2022-08-19T10:30:05.109Z,37.17
2022-08-19T10:32:46.389Z,36.60
2022-08-19T10:35:21.940Z,36.43
2022-08-19T10:37:57.593Z,36.10
2022-08-19T10:40:30.481Z,36.05
2022-08-19T10:42:58.782Z,35.56
2022-08-19T10:45:28.192Z,35.12
2022-08-19T10:47:57.989Z,34.91
2022-08-19T10:50:45.322Z,34.59
2022-08-19T10:53:14.704Z,34.16
2022-08-19T10:56:00.997Z,33.40
2022-08-19T10:58:42.728Z,33.35
2022-08-19T11:01:15.988Z,33.11
2022-08-19T11:03:46.276Z,32.96
2022-08-19T11:06:17.113Z,33.19
2022-08-19T11:08:45.920Z,33.24
2022-08-19T11:11:15.463Z,33.00
2022-08-19T11:13:45.326Z,32.73
2022-08-19T11:16:17.156Z,32.35
2022-08-19T11:18:51.748Z,32.12
2022-08-19T11:21:24.651Z,32.06
2022-08-19T11:23:55.606Z,32.31
2022-08-19T11:26:31.395Z,32.49
2022-08-19T11:29:02.276Z,31.73
2022-08-19T11:31:32.194Z,31.79
2022-08-19T11:34:02.559Z,31.64
2022-08-19T11:40:03.636Z,29.32
2022-08-19T11:42:54.720Z,29.69
2022-08-19T11:45:23.416Z,29.42
2022-08-19T11:51:41.793Z,28.36
2022-08-19T11:54:25.508Z,28.10
2022-08-19T11:57:14.903Z,28.13
2022-08-19T11:59:42.931Z,27.97
2022-08-19T12:02:11.947Z,27.99
2022-08-19T12:04:42.918Z,27.52
2022-08-19T12:07:21.950Z,27.18
2022-08-19T12:09:50.257Z,28.04
2022-08-19T12:12:43.762Z,29.53
2022-08-19T12:15:16.142Z,29.91
2022-08-19T12:17:44.731Z,29.85
2022-08-19T12:20:19.576Z,29.88
2022-08-19T12:22:54.077Z,30.01
2022-08-19T12:25:23.258Z,29.88
2022-08-19T12:27:57.455Z,29.73
2022-08-19T12:30:28.754Z,29.56
2022-08-19T12:33:01.777Z,29.52
2022-08-19T12:35:29.831Z,28.94
2022-08-19T12:38:03.768Z,29.28
2022-08-19T12:40:40.595Z,29.23
2022-08-19T12:43:10.339Z,29.25
2022-08-19T12:45:38.884Z,29.11
2022-08-19T12:48:33.572Z,28.67
2022-08-19T12:50:58.512Z,27.94
2022-08-19T12:53:26.588Z,28.08
2022-08-19T12:55:58.357Z,27.68
2022-08-19T12:58:29.559Z,27.28
2022-08-19T13:00:58.758Z,26.71
2022-08-19T13:03:30.632Z,26.89
2022-08-19T13:05:59.138Z,26.32
2022-08-19T13:08:27.046Z,26.58
2022-08-19T13:10:55.009Z,26.16
2022-08-19T13:13:27.111Z,26.06
2022-08-19T13:16:04.765Z,25.34
2022-08-19T13:18:33.002Z,24.56
2022-08-19T13:21:21.576Z,24.62
2022-08-19T13:24:21.361Z,23.77
2022-08-19T13:26:51.154Z,23.51
2022-08-19T13:29:38.147Z,22.93
2022-08-19T13:32:37.689Z,22.66
2022-08-19T13:35:07.658Z,22.89
2022-08-19T13:37:43.953Z,22.85
2022-08-19T13:40:24.638Z,22.98
2022-08-19T13:43:17.535Z,23.66
2022-08-19T13:46:22.378Z,24.14
2022-08-19T13:49:00.312Z,24.06
2022-08-19T13:51:30.293Z,24.34
2022-08-19T13:54:02.605Z,24.52
2022-08-19T13:56:33.903Z,24.41
2022-08-19T13:59:03.707Z,24.69
2022-08-19T14:01:32.457Z,25.09
2022-08-19T14:04:00.200Z,25.71
2022-08-19T14:06:29.894Z,26.17
2022-08-19T14:08:57.647Z,26.77
2022-08-19T14:11:25.621Z,27.52
2022-08-19T14:13:53.383Z,27.76
2022-08-19T14:16:22.800Z,28.26
2022-08-19T14:18:50.988Z,28.52
2022-08-19T14:21:21.078Z,28.95
2022-08-19T14:23:48.923Z,29.25
2022-08-19T14:26:21.226Z,29.75
2022-08-19T14:28:50.468Z,29.98
2022-08-19T14:31:20.034Z,30.82
2022-08-19T14:33:48.707Z,31.17
2022-08-19T14:36:16.430Z,31.48
2022-08-19T14:38:44.250Z,31.90
2022-08-19T14:41:20.313Z,32.19
2022-08-19T14:43:50.838Z,32.82
2022-08-19T14:46:22.645Z,32.76
2022-08-19T14:48:52.667Z,33.07
2022-08-19T14:51:23.106Z,33.32
2022-08-19T14:53:51.517Z,33.63
2022-08-19T14:56:23.498Z,34.46
2022-08-19T14:58:52.728Z,35.94
2022-08-19T15:01:23.355Z,36.71
2022-08-19T15:03:53.938Z,37.02
2022-08-19T15:06:25.705Z,37.81
2022-08-19T15:08:54.985Z,38.54
2022-08-19T15:11:29.125Z,38.55
2022-08-19T15:13:58.378Z,38.85
2022-08-19T15:16:27.547Z,39.49
2022-08-19T15:18:57.889Z,39.53
2022-08-19T15:21:27.561Z,39.86
2022-08-19T15:23:58.111Z,40.01
2022-08-19T15:26:28.750Z,40.21
2022-08-19T15:28:57.263Z,40.53
2022-08-19T15:31:28.171Z,41.08
2022-08-19T15:33:59.036Z,41.54
2022-08-19T15:36:28.445Z,42.07
2022-08-19T15:38:57.528Z,42.41
2022-08-19T15:41:30.992Z,42.74
2022-08-19T15:44:03.907Z,43.37
2022-08-19T15:46:34.647Z,43.36
2022-08-19T15:49:03.408Z,43.80
2022-08-19T15:51:35.617Z,44.04
2022-08-19T15:54:06.729Z,44.40
2022-08-19T15:56:57.406Z,44.62
2022-08-19T15:59:47.177Z,44.88
2022-08-19T16:02:37.030Z,45.20
2022-08-19T16:05:27.690Z,45.28
2022-08-19T16:07:56.810Z,45.66
2022-08-19T16:10:27.188Z,45.68
2022-08-19T16:12:58.075Z,45.44
2022-08-19T16:15:30.694Z,45.59
2022-08-19T16:17:59.162Z,45.54
2022-08-19T16:20:28.194Z,45.44
2022-08-19T16:22:58.525Z,45.56
2022-08-19T16:25:30.565Z,45.73
2022-08-19T16:28:06.588Z,45.76
2022-08-19T16:30:39.220Z,45.96
2022-08-19T16:33:08.447Z,45.58
2022-08-19T16:35:37.143Z,45.77
2022-08-19T16:38:07.162Z,45.42
2022-08-19T16:40:35.965Z,45.20
2022-08-19T16:43:04.412Z,45.07
2022-08-19T16:45:32.360Z,45.05
2022-08-19T16:48:00.170Z,44.79
2022-08-19T16:50:47.740Z,44.80
2022-08-19T16:53:20.033Z,44.62
2022-08-19T16:55:55.868Z,44.74
2022-08-19T16:58:29.236Z,45.03
2022-08-19T17:01:02.034Z,45.18
2022-08-19T17:03:35.645Z,45.12
2022-08-19T17:06:18.263Z,45.28
2022-08-19T17:08:50.830Z,45.53
2022-08-19T17:11:21.055Z,45.70
2022-08-19T17:13:50.951Z,45.94
2022-08-19T17:16:22.418Z,45.96
2022-08-19T17:18:52.468Z,46.16
2022-08-19T17:21:22.629Z,46.34
2022-08-19T17:23:50.722Z,46.61
2022-08-19T17:26:18.885Z,47.00
2022-08-19T17:28:52.116Z,46.88
2022-08-19T17:31:23.187Z,47.45
2022-08-19T17:33:52.619Z,47.55
2022-08-19T17:36:24.584Z,47.84
2022-08-19T17:38:55.511Z,47.82
2022-08-19T17:41:26.382Z,48.23
2022-08-19T17:43:55.629Z,48.18
2022-08-19T17:46:23.564Z,47.95
2022-08-19T17:48:55.315Z,48.37
2022-08-19T17:51:33.161Z,48.58
2022-08-19T17:54:02.013Z,48.84
2022-08-19T17:56:29.760Z,49.18
2022-08-19T17:59:00.741Z,49.21
2022-08-19T18:01:43.941Z,49.41
2022-08-19T18:04:20.018Z,49.96
2022-08-19T18:06:53.624Z,50.06
2022-08-19T18:09:38.615Z,50.04
2022-08-19T18:12:15.953Z,50.73
2022-08-19T18:14:43.865Z,50.66
2022-08-19T18:17:18.255Z,50.96
2022-08-19T18:19:47.852Z,51.29
2022-08-19T18:22:46.926Z,51.18
2022-08-19T18:25:24.288Z,51.58
2022-08-19T18:27:59.081Z,51.80
2022-08-19T18:30:35.870Z,51.90
2022-08-19T18:33:15.275Z,52.55
2022-08-19T18:35:46.634Z,52.53
2022-08-19T18:38:35.554Z,52.80
2022-08-19T18:41:23.118Z,53.05
2022-08-19T18:44:10.626Z,52.94
2022-08-19T18:46:57.449Z,53.12
2022-08-19T18:49:32.342Z,53.26
2022-08-19T18:52:02.617Z,53.42
2022-08-19T18:54:30.675Z,53.78
2022-08-19T18:56:59.271Z,53.91
2022-08-19T18:59:28.720Z,53.92
2022-08-19T19:01:59.116Z,54.05
2022-08-19T19:04:37.433Z,54.31
2022-08-19T19:07:06.768Z,54.52
2022-08-19T19:09:35.389Z,54.80
2022-08-19T19:12:05.303Z,55.06
2022-08-19T19:14:49.188Z,55.30
2022-08-19T19:17:18.181Z,55.39
2022-08-19T19:19:45.920Z,55.49
2022-08-19T19:22:18.865Z,55.66
2022-08-19T19:24:46.822Z,56.09
2022-08-19T19:27:18.438Z,56.44
2022-08-19T19:29:51.720Z,56.60
2022-08-19T19:32:30.953Z,56.36
2022-08-19T19:34:59.660Z,56.95
2022-08-19T19:37:27.647Z,57.62
2022-08-19T19:39:56.503Z,57.92
2022-08-19T19:42:24.451Z,58.29
2022-08-19T19:44:56.165Z,58.57
2022-08-19T19:47:24.566Z,58.78
2022-08-19T19:50:14.641Z,58.49
2022-08-19T19:52:45.881Z,58.08
2022-08-19T19:55:18.252Z,57.99
2022-08-19T19:57:49.665Z,57.83
2022-08-19T20:00:19.510Z,57.85
2022-08-19T20:02:51.068Z,58.40
2022-08-19T20:05:21.625Z,58.93
2022-08-19T20:08:09.568Z,59.26
2022-08-19T20:10:41.608Z,59.77
2022-08-19T20:13:11.635Z,59.99
2022-08-19T20:15:42.623Z,60.22
2022-08-19T20:18:13.527Z,60.46
2022-08-19T20:20:43.348Z,60.90
2022-08-19T20:23:12.059Z,61.15
2022-08-19T20:25:41.083Z,61.27
2022-08-19T20:28:09.545Z,61.46
2022-08-19T20:30:39.082Z,61.59
2022-08-19T20:33:13.844Z,61.94
2022-08-19T20:35:43.806Z,62.08
2022-08-19T20:38:11.957Z,62.18
2022-08-19T20:40:41.155Z,62.49
2022-08-19T20:43:13.362Z,62.78
2022-08-19T20:45:41.386Z,62.61
2022-08-19T20:48:12.282Z,62.96
2022-08-19T20:50:40.697Z,63.17
2022-08-19T20:53:13.307Z,63.18
2022-08-19T20:55:45.430Z,63.49
2022-08-19T20:58:14.148Z,63.71
2022-08-19T21:00:46.746Z,63.85
2022-08-19T21:03:20.677Z,64.00
2022-08-19T21:05:48.767Z,63.98
2022-08-19T21:08:18.323Z,64.25
2022-08-19T21:10:49.131Z,64.55
2022-08-19T21:13:19.382Z,64.51
2022-08-19T21:15:47.499Z,64.36
2022-08-19T21:18:18.117Z,64.52
2022-08-19T21:20:46.830Z,64.51
2022-08-19T21:23:20.229Z,64.50
2022-08-19T21:25:54.361Z,64.65
2022-08-19T21:28:35.072Z,64.36
2022-08-19T21:31:10.658Z,64.47
2022-08-19T21:33:39.206Z,64.39
2022-08-19T21:36:07.205Z,64.43
2022-08-19T21:38:35.984Z,64.59
2022-08-19T21:41:07.334Z,64.51
2022-08-19T21:43:37.139Z,64.91
2022-08-19T21:46:06.341Z,64.56
2022-08-19T21:48:34.938Z,64.60
2022-08-19T21:51:02.833Z,64.73
2022-08-19T21:53:34.175Z,64.50
2022-08-19T21:56:04.007Z,64.34
2022-08-19T21:58:33.632Z,64.31
2022-08-19T22:01:06.119Z,64.49
2022-08-19T22:03:36.315Z,64.26
2022-08-19T22:06:05.500Z,64.27
2022-08-19T22:08:33.529Z,64.27
2022-08-19T22:11:04.956Z,64.14
2022-08-19T22:13:40.078Z,64.14
2022-08-19T22:16:09.721Z,64.18
2022-08-19T22:18:37.878Z,64.05
2022-08-19T22:21:11.338Z,63.94
2022-08-19T22:23:41.752Z,64.15
2022-08-19T22:26:11.789Z,64.20
2022-08-19T22:28:39.783Z,64.23
2022-08-19T22:31:09.543Z,64.31
2022-08-19T22:33:38.561Z,64.68
2022-08-19T22:36:08.134Z,64.80
2022-08-19T22:38:38.395Z,64.90
2022-08-19T22:41:07.968Z,64.92
2022-08-19T22:43:37.012Z,65.24
2022-08-19T22:46:16.883Z,65.18
2022-08-19T22:48:47.137Z,65.70
2022-08-19T22:51:35.056Z,66.02
2022-08-19T22:54:04.665Z,66.11
2022-08-19T22:56:35.336Z,66.01
2022-08-19T22:59:04.583Z,66.01
2022-08-19T23:01:32.411Z,66.18
2022-08-19T23:04:00.295Z,66.50
2022-08-19T23:06:33.856Z,66.61
2022-08-19T23:09:07.302Z,66.82
2022-08-19T23:11:42.116Z,66.63
2022-08-19T23:14:12.802Z,66.87
2022-08-19T23:16:41.789Z,67.04
2022-08-19T23:19:10.704Z,67.01
2022-08-19T23:21:40.648Z,66.97
2022-08-19T23:24:09.722Z,66.78
2022-08-19T23:26:37.756Z,67.11
2022-08-19T23:29:24.920Z,67.20
2022-08-19T23:31:55.391Z,67.11
2022-08-19T23:34:23.933Z,67.13
2022-08-19T23:36:51.954Z,67.37
2022-08-19T23:39:21.091Z,67.31
2022-08-19T23:41:49.138Z,67.36
2022-08-19T23:44:18.408Z,67.33
2022-08-19T23:46:55.107Z,67.55
2022-08-19T23:49:27.291Z,67.36
2022-08-19T23:51:55.922Z,67.75
2022-08-19T23:54:42.655Z,67.90
2022-08-19T23:57:14.092Z,68.11
2022-08-19T23:59:45.689Z,67.95
